Time;durP1;ratioP1;P1;durP2;ratioP2;P2;SDS_P1;SDS_P2;PMS_P1;PMS_P2;Temp;Humidity;BMP_temperature;BMP_pressure;BME280_temperature;BME280_humidity;BME280_pressure;Samples;Min_cycle;Max_cycle;Signal;HPM_P1;HPM_P2
2021/04/28 00:00:50;;;;;;;8.98;4.78;;;;;;;5.21;45.88;100481.94;5024628;28;20053;-78
2021/04/28 00:03:16;;;;;;;12.35;4.60;;;;;;;5.26;45.67;100481.75;5013792;28;20045;-78
2021/04/28 00:05:43;;;;;;;12.73;4.20;;;;;;;5.34;45.56;100482.31;5044916;28;20084;-78
2021/04/28 00:08:10;;;;;;;8.80;4.47;;;;;;;5.21;46.21;100476.72;5032847;28;20056;-77
2021/04/28 00:10:40;;;;;;;9.35;4.53;;;;;;;5.17;46.50;100475.13;5026326;28;20084;-77
2021/04/28 00:13:13;;;;;;;7.22;4.00;;;;;;;5.17;45.87;100471.69;5030826;28;20045;-78
2021/04/28 00:15:44;;;;;;;9.30;4.78;;;;;;;5.20;46.37;100468.97;5025258;28;20360;-77
2021/04/28 00:18:12;;;;;;;10.00;4.82;;;;;;;5.17;45.78;100469.06;4998659;28;20041;-78
2021/04/28 00:20:40;;;;;;;9.15;4.60;;;;;;;5.12;45.75;100473.63;5014901;28;20060;-77
2021/04/28 00:23:08;;;;;;;11.00;5.03;;;;;;;5.13;45.84;100470.94;5026940;28;20080;-78
2021/04/28 00:25:42;;;;;;;8.23;4.55;;;;;;;5.10;46.29;100463.25;5031905;28;20521;-78
2021/04/28 00:28:10;;;;;;;10.10;4.15;;;;;;;5.04;46.56;100461.75;5013912;28;20073;-77
2021/04/28 00:30:38;;;;;;;10.48;4.53;;;;;;;5.02;46.21;100455.72;5047354;28;20060;-78
2021/04/28 00:33:05;;;;;;;7.93;4.47;;;;;;;5.12;46.29;100455.34;5054922;28;20332;-77
2021/04/28 00:35:32;;;;;;;6.97;3.92;;;;;;;4.96;46.45;100452.50;5052084;28;20057;-77
2021/04/28 00:37:59;;;;;;;11.98;5.00;;;;;;;4.99;45.96;100453.22;5013449;28;20072;-78
2021/04/28 00:40:34;;;;;;;10.48;5.55;;;;;;;4.84;46.55;100448.59;5047917;28;20045;-78
2021/04/28 00:43:01;;;;;;;9.38;4.75;;;;;;;4.98;46.65;100448.06;5015708;28;20128;-76
2021/04/28 00:45:29;;;;;;;15.40;4.78;;;;;;;4.82;47.21;100440.00;5011255;28;20140;-77
2021/04/28 00:47:56;;;;;;;14.02;5.25;;;;;;;4.83;47.00;100446.91;5011682;28;20037;-77
2021/04/28 00:50:28;;;;;;;10.23;4.72;;;;;;;4.85;46.59;100445.06;5014276;28;20601;-78
2021/04/28 00:52:55;;;;;;;9.65;5.78;;;;;;;4.91;46.17;100441.38;5018487;28;20072;-77
2021/04/28 00:55:21;;;;;;;7.82;4.57;;;;;;;4.97;46.78;100446.38;5032004;28;20054;-77
2021/04/28 00:57:50;;;;;;;11.50;4.80;;;;;;;4.85;46.56;100445.06;5032412;28;20128;-77
2021/04/28 01:00:18;;;;;;;10.18;4.82;;;;;;;4.81;46.90;100430.44;5005258;28;20041;-77
2021/04/28 01:02:44;;;;;;;10.40;4.25;;;;;;;4.77;46.77;100437.56;5006458;28;20079;-77
2021/04/28 01:05:12;;;;;;;7.10;4.20;;;;;;;4.80;46.28;100426.16;5020234;28;20080;-77
2021/04/28 01:07:40;;;;;;;8.48;4.53;;;;;;;4.71;47.13;100423.88;5030381;28;20521;-77
2021/04/28 01:10:11;;;;;;;9.75;4.47;;;;;;;4.76;47.15;100419.34;5031087;28;20063;-76
2021/04/28 01:12:38;;;;;;;19.92;5.60;;;;;;;4.66;47.09;100407.56;5015050;28;20046;-76
2021/04/28 01:15:09;;;;;;;13.45;5.25;;;;;;;4.52;47.42;100413.31;5039224;28;20045;-76
2021/04/28 01:17:36;;;;;;;13.15;4.95;;;;;;;4.55;47.59;100408.00;5014267;28;20318;-76
2021/04/28 01:20:05;;;;;;;9.68;4.93;;;;;;;4.61;47.17;100412.97;4999673;28;20045;-77
2021/04/28 01:22:42;;;;;;;9.70;4.57;;;;;;;4.52;47.66;100414.16;5062826;22;20052;-84
2021/04/28 01:25:12;;;;;;;12.15;5.28;;;;;;;4.50;47.57;100415.09;5080835;28;20080;-84
2021/04/28 01:27:41;;;;;;;13.25;5.43;;;;;;;4.62;46.55;100414.66;5079368;28;20064;-84
2021/04/28 01:30:08;;;;;;;9.77;5.00;;;;;;;4.61;46.98;100402.53;5035938;28;20095;-85
2021/04/28 01:32:35;;;;;;;11.32;5.22;;;;;;;4.60;47.17;100407.81;5070930;28;20164;-84
2021/04/28 01:35:03;;;;;;;12.82;4.97;;;;;;;4.69;46.73;100407.47;5043101;28;20040;-84
2021/04/28 01:37:31;;;;;;;10.23;5.13;;;;;;;4.68;46.95;100403.13;5030352;28;20064;-85
2021/04/28 01:40:00;;;;;;;8.25;4.45;;;;;;;4.57;46.69;100398.34;5052210;28;20055;-84
2021/04/28 01:42:27;;;;;;;14.40;5.45;;;;;;;4.56;47.24;100394.88;5066473;28;20049;-84
2021/04/28 01:44:55;;;;;;;12.82;5.47;;;;;;;4.53;47.26;100395.00;5057946;28;20096;-84
2021/04/28 01:47:22;;;;;;;11.05;5.93;;;;;;;4.51;47.31;100394.22;5061423;28;20055;-83
2021/04/28 01:49:51;;;;;;;13.73;5.22;;;;;;;4.58;46.99;100393.06;5085733;28;20132;-85
2021/04/28 01:52:18;;;;;;;10.45;5.03;;;;;;;4.58;46.67;100385.22;5059216;28;20135;-85
2021/04/28 01:54:48;;;;;;;12.35;5.47;;;;;;;4.55;46.89;100385.38;5026453;28;20064;-84
2021/04/28 01:57:16;;;;;;;11.65;4.97;;;;;;;4.55;47.03;100382.75;5065598;28;20053;-84
2021/04/28 01:59:43;;;;;;;14.00;5.03;;;;;;;4.58;46.74;100382.63;5078252;28;20057;-84
2021/04/28 02:02:10;;;;;;;15.75;6.53;;;;;;;4.60;47.06;100376.53;5059641;28;20052;-83
2021/04/28 02:04:37;;;;;;;10.25;4.55;;;;;;;4.48;47.87;100380.44;5077567;28;20063;-84
2021/04/28 02:07:05;;;;;;;10.75;4.95;;;;;;;4.58;46.95;100371.34;5046376;28;20102;-83
2021/04/28 02:09:31;;;;;;;10.38;5.53;;;;;;;4.54;47.25;100373.22;5068000;28;20067;-84
2021/04/28 02:12:00;;;;;;;10.60;5.55;;;;;;;4.49;47.51;100369.94;5070402;28;20016;-83
2021/04/28 02:14:41;;;;;;;10.75;5.32;;;;;;;4.51;47.35;100362.09;5044788;28;20133;-84
2021/04/28 02:17:08;;;;;;;10.70;5.47;;;;;;;4.48;47.08;100359.59;5078089;28;20500;-86
2021/04/28 02:19:38;;;;;;;12.73;4.93;;;;;;;4.43;47.53;100361.53;5082674;28;20032;-83
2021/04/28 02:22:05;;;;;;;12.38;5.25;;;;;;;4.43;47.72;100362.38;5069163;28;20040;-83
2021/04/28 02:24:32;;;;;;;18.33;6.10;;;;;;;4.41;47.35;100358.94;5062313;28;20060;-85
2021/04/28 02:26:59;;;;;;;12.60;4.97;;;;;;;4.32;47.73;100348.88;5070549;28;20227;-84
2021/04/28 02:29:27;;;;;;;14.00;6.15;;;;;;;4.37;47.78;100352.19;5083857;28;20052;-85
2021/04/28 02:31:53;;;;;;;10.73;5.22;;;;;;;4.33;47.98;100350.59;5082360;28;20520;-84
2021/04/28 02:34:20;;;;;;;14.40;5.70;;;;;;;4.27;48.00;100341.22;5086457;28;20032;-84
2021/04/28 02:36:49;;;;;;;12.68;5.53;;;;;;;4.25;48.17;100345.66;5063641;28;20055;-84
2021/04/28 02:39:29;;;;;;;12.20;5.90;;;;;;;4.27;48.37;100343.84;5059911;28;20033;-84
2021/04/28 02:41:56;;;;;;;11.77;6.15;;;;;;;4.19;48.89;100339.84;5065739;28;20036;-84
2021/04/28 02:44:25;;;;;;;12.23;5.93;;;;;;;4.14;48.68;100339.13;5065264;28;20071;-84
2021/04/28 02:46:54;;;;;;;11.77;5.63;;;;;;;4.15;48.78;100333.91;5060447;28;20112;-84
2021/04/28 02:49:23;;;;;;;12.57;5.38;;;;;;;4.00;49.98;100335.28;5069973;28;20221;-84
2021/04/28 02:51:51;;;;;;;13.88;5.82;;;;;;;4.02;49.32;100330.03;5044293;28;20083;-83
2021/04/28 02:54:20;;;;;;;17.85;6.07;;;;;;;3.94;49.79;100332.91;5068016;28;20035;-84
2021/04/28 02:56:49;;;;;;;12.60;5.68;;;;;;;3.93;49.66;100323.41;5082108;28;20098;-84
2021/04/28 02:59:18;;;;;;;15.77;6.28;;;;;;;3.85;50.43;100327.19;5049199;28;20028;-85
2021/04/28 03:01:47;;;;;;;13.07;5.63;;;;;;;3.94;49.94;100327.72;5065296;28;21497;-84
2021/04/28 03:04:17;;;;;;;14.77;6.25;;;;;;;3.86;49.99;100329.72;5068840;28;20048;-84
2021/04/28 03:06:44;;;;;;;12.07;6.43;;;;;;;3.85;50.58;100330.66;5081612;28;20040;-85
2021/04/28 03:09:13;;;;;;;11.25;6.15;;;;;;;3.77;50.78;100328.31;5089016;28;20059;-84
2021/04/28 03:11:42;;;;;;;11.77;5.32;;;;;;;3.80;50.87;100332.56;5074471;28;20074;-84
2021/04/28 03:14:09;;;;;;;13.52;5.72;;;;;;;3.74;50.62;100327.59;5089232;28;20041;-84
2021/04/28 03:16:36;;;;;;;8.65;4.82;;;;;;;3.70;51.25;100324.25;5088417;28;20037;-84
2021/04/28 03:19:04;;;;;;;11.20;5.78;;;;;;;3.64;51.11;100321.00;5085171;28;20033;-84
2021/04/28 03:21:34;;;;;;;14.60;6.65;;;;;;;3.65;51.34;100326.16;5083623;28;20075;-83
2021/04/28 03:24:02;;;;;;;11.93;5.97;;;;;;;3.61;51.68;100326.31;5057634;28;20033;-83
2021/04/28 03:26:29;;;;;;;15.20;6.05;;;;;;;3.49;51.78;100325.81;5082824;28;20138;-84
2021/04/28 03:28:56;;;;;;;10.40;5.13;;;;;;;3.51;52.24;100326.66;5074991;28;20096;-85
2021/04/28 03:31:25;;;;;;;15.13;8.25;;;;;;;3.54;52.21;100323.91;5080513;28;20057;-85
2021/04/28 03:33:52;;;;;;;12.98;6.10;;;;;;;3.51;52.24;100317.97;5092444;28;20078;-84
2021/04/28 03:36:19;;;;;;;16.10;6.53;;;;;;;3.42;52.19;100316.56;5089661;28;20056;-84
2021/04/28 03:38:45;;;;;;;20.58;6.55;;;;;;;3.37;52.78;100315.84;5083691;28;20051;-85
2021/04/28 03:41:12;;;;;;;14.10;5.90;;;;;;;3.35;52.88;100320.25;5060718;28;20168;-84
2021/04/28 03:43:39;;;;;;;12.40;6.07;;;;;;;3.47;52.74;100319.00;5077574;28;20029;-84
2021/04/28 03:46:06;;;;;;;13.52;6.70;;;;;;;3.41;53.17;100317.44;5052716;22;20048;-70
2021/04/28 03:48:32;;;;;;;12.52;6.93;;;;;;;3.37;52.89;100318.44;4995164;28;20485;-68
2021/04/28 03:50:59;;;;;;;12.35;6.82;;;;;;;3.36;53.43;100308.09;5012384;28;20540;-71
2021/04/28 03:53:28;;;;;;;13.15;6.82;;;;;;;3.36;53.45;100311.53;4993633;28;20053;-70
2021/04/28 03:55:55;;;;;;;15.10;6.00;;;;;;;3.38;53.47;100314.97;5014918;28;20121;-71
2021/04/28 03:58:21;;;;;;;13.95;6.40;;;;;;;3.33;53.44;100318.59;5016101;28;20113;-71
2021/04/28 04:00:48;;;;;;;21.48;9.05;;;;;;;3.38;53.58;100314.97;5005276;28;20104;-70
2021/04/28 04:03:15;;;;;;;14.43;7.13;;;;;;;3.28;54.02;100321.34;4998718;28;20113;-71
2021/04/28 04:05:42;;;;;;;14.05;6.47;;;;;;;3.33;53.87;100314.22;4990753;28;20050;-69
2021/04/28 04:08:09;;;;;;;15.27;6.60;;;;;;;3.27;54.25;100306.66;5007632;28;20157;-70
2021/04/28 04:10:36;;;;;;;12.65;6.85;;;;;;;3.30;54.33;100316.97;4991553;28;20396;-72
2021/04/28 04:13:02;;;;;;;12.68;6.85;;;;;;;3.26;54.29;100316.22;5004264;28;20396;-70
2021/04/28 04:15:29;;;;;;;16.58;7.00;;;;;;;3.36;54.25;100314.13;4984699;28;20130;-71
2021/04/28 04:17:56;;;;;;;16.80;7.22;;;;;;;3.33;54.24;100314.22;4994876;28;20543;-71
2021/04/28 04:20:22;;;;;;;15.50;7.20;;;;;;;3.39;54.14;100324.44;5009993;28;20064;-70
2021/04/28 04:22:49;;;;;;;15.43;6.93;;;;;;;3.55;53.98;100324.75;5011079;28;20503;-69
2021/04/28 04:25:16;;;;;;;16.15;7.95;;;;;;;3.62;53.84;100325.41;5000580;28;20449;-70
2021/04/28 04:27:43;;;;;;;15.43;7.63;;;;;;;3.59;53.57;100321.16;5006401;28;20042;-70
2021/04/28 04:30:10;;;;;;;13.68;6.50;;;;;;;3.69;53.64;100327.75;5012912;28;20598;-70
2021/04/28 04:32:37;;;;;;;16.75;7.20;;;;;;;4.55;51.30;100332.38;5004049;28;20057;-71
2021/04/28 04:35:05;;;;;;;19.95;7.32;;;;;;;4.77;50.92;100328.03;4974533;28;20491;-70
2021/04/28 04:37:32;;;;;;;17.70;7.50;;;;;;;5.34;49.98;100320.47;4984090;28;20064;-70
2021/04/28 04:39:59;;;;;;;15.80;7.70;;;;;;;6.18;47.46;100322.03;4987129;28;20128;-70
2021/04/28 04:42:25;;;;;;;17.52;7.25;;;;;;;6.98;44.76;100315.63;5005068;28;20083;-70
2021/04/28 04:44:52;;;;;;;14.60;6.95;;;;;;;7.77;43.20;100321.25;4977183;28;20058;-71
2021/04/28 04:47:19;;;;;;;11.82;6.70;;;;;;;8.85;40.80;100317.16;5002200;28;20287;-70
2021/04/28 04:49:46;;;;;;;12.13;7.05;;;;;;;9.34;39.71;100319.56;4973391;28;20155;-71
2021/04/28 04:52:12;;;;;;;16.30;7.57;;;;;;;9.37;39.22;100325.50;5003646;28;20127;-69
2021/04/28 04:54:39;;;;;;;16.00;7.82;;;;;;;9.43;38.72;100323.44;4992038;28;20053;-70
2021/04/28 04:57:06;;;;;;;18.50;7.80;;;;;;;9.40;38.54;100324.47;5009003;28;20060;-70
2021/04/28 04:59:33;;;;;;;14.10;7.43;;;;;;;9.62;38.01;100324.03;5012497;28;20706;-69
2021/04/28 05:02:00;;;;;;;21.50;8.57;;;;;;;9.12;38.76;100323.44;4996100;28;20124;-69
2021/04/28 05:04:28;;;;;;;17.38;7.25;;;;;;;9.74;37.89;100315.41;4994509;28;20078;-69
2021/04/28 05:06:55;;;;;;;14.75;7.80;;;;;;;10.95;36.26;100321.00;4994744;28;20078;-70
2021/04/28 05:09:22;;;;;;;14.50;8.10;;;;;;;11.02;35.13;100316.16;5006729;28;20046;-69
2021/04/28 05:11:48;;;;;;;16.10;8.45;;;;;;;10.83;35.49;100312.09;4982701;28;20081;-68
2021/04/28 05:14:15;;;;;;;14.55;7.57;;;;;;;11.14;34.87;100326.75;5003352;28;20106;-76
2021/04/28 05:16:47;;;;;;;20.35;8.25;;;;;;;10.94;35.70;100316.66;4995666;28;20149;-71
2021/04/28 05:19:14;;;;;;;17.90;8.50;;;;;;;11.29;34.69;100316.13;5017716;28;20623;-69
2021/04/28 05:21:40;;;;;;;22.33;7.55;;;;;;;11.62;33.82;100319.16;5008479;28;20064;-69
2021/04/28 05:24:08;;;;;;;17.35;7.93;;;;;;;11.77;33.57;100316.41;5019760;28;20175;-69
2021/04/28 05:26:34;;;;;;;14.60;8.43;;;;;;;11.64;33.27;100314.59;5017704;28;20058;-72
2021/04/28 05:29:01;;;;;;;15.60;8.50;;;;;;;11.82;33.66;100311.66;5018200;28;20077;-78
2021/04/28 05:31:29;;;;;;;15.55;7.88;;;;;;;12.18;32.80;100310.06;5001326;28;20066;-74
2021/04/28 05:33:58;;;;;;;17.35;7.88;;;;;;;12.18;32.57;100318.84;4982386;28;20149;-73
2021/04/28 05:36:25;;;;;;;17.25;9.32;;;;;;;12.92;31.38;100306.44;5006289;28;20149;-74
2021/04/28 05:38:58;;;;;;;14.57;8.45;;;;;;;13.31;31.38;100310.59;5003982;28;20060;-69
2021/04/28 05:41:28;;;;;;;13.27;8.15;;;;;;;12.80;31.42;100310.00;4999452;28;20057;-70
2021/04/28 05:43:56;;;;;;;14.73;8.57;;;;;;;12.28;32.32;100311.09;4999838;28;20065;-70
2021/04/28 05:46:26;;;;;;;24.15;9.18;;;;;;;11.09;34.21;100313.03;4985708;28;20137;-70
2021/04/28 05:48:52;;;;;;;20.23;8.43;;;;;;;10.35;35.55;100311.66;5006118;28;20056;-70
2021/04/28 05:51:19;;;;;;;18.58;10.15;;;;;;;9.29;37.18;100308.50;5002654;28;20141;-70
2021/04/28 05:53:46;;;;;;;20.77;9.85;;;;;;;8.74;38.86;100311.66;4973836;28;20126;-70
2021/04/28 05:56:12;;;;;;;21.25;9.07;;;;;;;9.16;38.52;100312.78;4986514;28;20419;-71
2021/04/28 05:58:39;;;;;;;19.73;9.85;;;;;;;9.55;38.42;100313.06;4991914;28;20431;-71
2021/04/28 06:01:06;;;;;;;20.65;10.05;;;;;;;11.00;35.24;100316.28;5002262;28;20046;-70
2021/04/28 06:03:33;;;;;;;18.08;8.50;;;;;;;11.96;34.02;100319.47;4994018;28;20092;-71
2021/04/28 06:05:59;;;;;;;15.52;8.57;;;;;;;13.01;31.70;100313.69;5001675;28;20058;-71
2021/04/28 06:08:26;;;;;;;18.23;9.30;;;;;;;12.79;32.43;100322.38;4998922;28;20080;-71
2021/04/28 06:10:53;;;;;;;25.67;9.60;;;;;;;13.52;30.80;100309.94;5003659;28;20046;-70
2021/04/28 06:13:19;;;;;;;14.93;8.13;;;;;;;13.58;30.49;100309.47;5002182;28;20078;-72
2021/04/28 06:15:46;;;;;;;17.95;9.18;;;;;;;14.61;29.29;100304.91;5005261;28;20045;-69
2021/04/28 06:18:13;;;;;;;19.80;9.10;;;;;;;14.62;28.72;100304.78;4985493;28;20065;-71
2021/04/28 06:20:39;;;;;;;21.90;11.48;;;;;;;15.94;27.80;100299.09;4977443;28;20132;-70
2021/04/28 06:23:06;;;;;;;21.60;11.35;;;;;;;16.56;26.33;100299.84;4984960;28;20129;-71
2021/04/28 06:25:33;;;;;;;19.65;11.27;;;;;;;17.12;25.27;100292.09;5002021;28;20168;-72
2021/04/28 06:28:00;;;;;;;26.55;11.32;;;;;;;18.26;24.03;100292.09;4987276;28;20050;-70
2021/04/28 06:30:27;;;;;;;22.67;10.48;;;;;;;19.22;23.04;100274.59;5008510;28;20038;-72
2021/04/28 06:32:54;;;;;;;31.77;9.85;;;;;;;18.72;23.28;100285.81;5004270;28;20152;-71
2021/04/28 06:35:21;;;;;;;20.65;11.75;;;;;;;16.91;25.46;100289.56;5006707;28;20513;-70
2021/04/28 06:37:48;;;;;;;21.80;10.75;;;;;;;18.56;22.88;100291.81;5008493;28;20084;-72
2021/04/28 06:40:14;;;;;;;17.02;9.90;;;;;;;18.02;23.79;100288.16;5001364;28;20041;-70
2021/04/28 06:42:41;;;;;;;19.90;10.30;;;;;;;18.06;23.66;100286.03;5003164;28;20042;-71
2021/04/28 06:45:08;;;;;;;19.40;11.82;;;;;;;17.92;24.10;100280.22;5003182;28;20385;-72
2021/04/28 06:47:35;;;;;;;19.60;10.57;;;;;;;19.35;22.84;100271.53;4985647;28;20058;-70
2021/04/28 06:50:06;;;;;;;17.30;9.88;;;;;;;18.14;23.68;100275.47;4984159;28;20069;-71
2021/04/28 06:52:33;;;;;;;21.55;10.65;;;;;;;19.32;22.37;100270.03;4985874;28;20137;-69
2021/04/28 06:55:00;;;;;;;19.67;10.77;;;;;;;18.91;22.91;100271.50;5001393;28;20049;-72
2021/04/28 06:57:52;;;;;;;16.95;9.82;;;;;;;19.04;22.40;100271.94;4991006;28;20053;-72
2021/04/28 07:00:19;;;;;;;21.77;10.63;;;;;;;19.78;22.21;100272.53;4988074;28;20486;-69
2021/04/28 07:02:46;;;;;;;18.95;9.65;;;;;;;18.51;23.18;100271.88;4986040;28;20057;-72
2021/04/28 07:05:13;;;;;;;23.25;10.15;;;;;;;19.14;22.49;100266.56;5001119;28;20128;-73
2021/04/28 07:07:40;;;;;;;19.38;10.77;;;;;;;19.74;22.02;100266.66;5004816;28;20101;-71
2021/04/28 07:10:07;;;;;;;18.95;9.45;;;;;;;20.23;21.21;100267.72;4989725;28;20042;-71
2021/04/28 07:12:34;;;;;;;16.98;9.75;;;;;;;19.41;21.77;100266.44;4989154;28;20065;-72
2021/04/28 07:15:01;;;;;;;23.05;10.52;;;;;;;19.30;22.08;100266.66;4983461;28;20096;-72
2021/04/28 07:17:28;;;;;;;21.77;10.73;;;;;;;19.19;22.28;100261.59;5007095;28;20046;-72
2021/04/28 07:19:54;;;;;;;25.95;10.88;;;;;;;21.26;20.31;100247.84;4988742;28;20500;-70
2021/04/28 07:22:21;;;;;;;20.48;9.90;;;;;;;21.29;20.25;100253.69;4989875;28;20050;-70
2021/04/28 07:24:49;;;;;;;17.83;9.77;;;;;;;22.12;19.22;100248.00;5002290;28;20145;-70
2021/04/28 07:27:16;;;;;;;22.00;10.90;;;;;;;22.27;18.86;100256.16;5004378;28;20605;-71
2021/04/28 07:29:43;;;;;;;19.20;9.80;;;;;;;21.94;19.24;100252.75;4973571;28;20066;-71
2021/04/28 07:32:09;;;;;;;15.88;10.57;;;;;;;20.74;20.75;100251.66;4989742;28;20141;-71
2021/04/28 07:34:36;;;;;;;18.60;9.85;;;;;;;20.78;20.34;100255.69;4993989;28;20046;-72
2021/04/28 07:37:04;;;;;;;18.15;10.20;;;;;;;20.89;20.18;100259.88;4997654;28;20458;-72
2021/04/28 07:39:30;;;;;;;20.17;10.70;;;;;;;21.91;19.68;100253.06;4990900;28;20073;-71
2021/04/28 07:41:57;;;;;;;18.05;10.63;;;;;;;22.44;18.83;100248.84;4992656;28;20053;-71
2021/04/28 07:44:25;;;;;;;16.63;9.50;;;;;;;21.52;19.42;100248.47;5007498;28;20189;-71
2021/04/28 07:46:52;;;;;;;16.65;9.80;;;;;;;21.23;20.07;100251.69;4975327;28;20046;-72
2021/04/28 07:49:19;;;;;;;20.13;10.10;;;;;;;23.24;18.27;100246.63;4979443;28;20054;-71
2021/04/28 07:51:46;;;;;;;17.95;10.10;;;;;;;22.86;18.55;100240.34;5014515;28;20058;-72
2021/04/28 07:54:22;;;;;;;19.05;10.30;;;;;;;22.77;18.45;100245.94;4998453;28;20144;-72
2021/04/28 07:56:49;;;;;;;18.90;10.90;;;;;;;21.31;19.60;100245.50;4996293;28;20453;-71
2021/04/28 07:59:16;;;;;;;22.08;10.35;;;;;;;22.73;18.73;100246.31;5002470;28;20120;-70
2021/04/28 08:01:43;;;;;;;18.70;10.30;;;;;;;23.77;17.29;100240.38;4965637;28;20133;-70
2021/04/28 08:04:10;;;;;;;21.75;10.55;;;;;;;24.04;17.35;100234.34;4995702;28;20145;-72
2021/04/28 08:06:37;;;;;;;19.90;10.30;;;;;;;24.36;16.56;100232.25;4966417;28;20158;-72
2021/04/28 08:09:05;;;;;;;18.35;10.65;;;;;;;25.17;15.91;100222.97;5002676;28;20078;-73
2021/04/28 08:11:31;;;;;;;20.77;11.80;;;;;;;23.42;17.38;100235.53;4987062;28;20431;-73
2021/04/28 08:13:58;;;;;;;17.92;9.93;;;;;;;23.31;17.45;100229.75;5009756;28;20260;-71
2021/04/28 08:16:25;;;;;;;17.10;9.50;;;;;;;21.77;18.78;100224.31;5006160;28;20081;-72
2021/04/28 08:18:52;;;;;;;18.58;10.45;;;;;;;21.08;19.64;100235.47;4988235;28;20081;-72
2021/04/28 08:21:19;;;;;;;19.52;9.82;;;;;;;21.88;18.88;100229.28;4954174;28;20050;-71
2021/04/28 08:23:46;;;;;;;23.98;10.98;;;;;;;23.25;17.92;100218.72;5006064;28;20133;-72
2021/04/28 08:26:13;;;;;;;15.50;10.10;;;;;;;23.62;17.51;100226.91;4993567;28;20145;-73
2021/04/28 08:28:43;;;;;;;21.42;10.07;;;;;;;23.44;17.55;100219.22;4990042;28;20058;-72
2021/04/28 08:31:12;;;;;;;18.33;10.65;;;;;;;23.96;17.14;100215.66;4989265;28;20812;-70
2021/04/28 08:33:39;;;;;;;21.50;10.93;;;;;;;22.56;18.70;100215.25;4982906;28;20043;-71
2021/04/28 08:36:07;;;;;;;18.88;11.18;;;;;;;20.38;20.43;100221.66;5002411;28;20125;-70
2021/04/28 08:38:34;;;;;;;17.73;10.20;;;;;;;18.38;22.94;100211.81;4985946;28;20050;-71
2021/04/28 08:41:03;;;;;;;21.45;10.48;;;;;;;17.40;23.96;100218.53;4976562;28;20080;-72
2021/04/28 08:43:30;;;;;;;19.92;10.32;;;;;;;16.30;26.34;100223.31;4984084;28;20033;-70
2021/04/28 08:45:59;;;;;;;20.05;10.25;;;;;;;15.75;27.98;100224.66;4991004;28;20046;-71
2021/04/28 08:48:28;;;;;;;19.90;9.93;;;;;;;15.26;28.00;100219.06;5006724;28;20072;-70
2021/04/28 08:50:55;;;;;;;19.00;10.43;;;;;;;15.12;28.05;100211.44;4990998;28;20100;-70
2021/04/28 08:53:23;;;;;;;20.35;10.90;;;;;;;15.03;28.69;100210.41;5010655;28;20266;-71
2021/04/28 08:55:50;;;;;;;19.88;10.55;;;;;;;14.61;29.34;100209.53;5002535;28;20133;-70
2021/04/28 08:58:20;;;;;;;23.25;10.77;;;;;;;14.43;29.09;100203.91;4983573;28;20058;-72
2021/04/28 09:00:47;;;;;;;18.20;10.35;;;;;;;14.04;30.15;100210.59;4983776;28;20144;-71
2021/04/28 09:03:16;;;;;;;20.45;10.40;;;;;;;14.44;29.71;100210.88;5005811;28;20310;-71
2021/04/28 09:05:44;;;;;;;20.98;10.18;;;;;;;14.13;30.14;100208.06;4987091;28;20536;-69
2021/04/28 09:08:11;;;;;;;20.23;10.82;;;;;;;13.99;30.60;100207.50;5015341;28;20141;-71
2021/04/28 09:10:39;;;;;;;22.23;9.82;;;;;;;13.91;30.70;100205.44;4991996;28;20330;-70
2021/04/28 09:13:19;;;;;;;19.17;9.00;;;;;;;13.42;31.32;100198.75;4991837;28;20088;-70
2021/04/28 09:15:47;;;;;;;20.83;10.40;;;;;;;13.61;31.64;100198.97;4999788;28;20212;-70
2021/04/28 09:18:16;;;;;;;22.45;10.70;;;;;;;13.66;31.19;100199.47;4984119;28;20123;-70
2021/04/28 09:20:52;;;;;;;18.17;10.02;;;;;;;13.78;31.43;100199.44;4985002;28;20056;-71
2021/04/28 09:23:28;;;;;;;18.20;10.55;;;;;;;14.05;30.77;100199.91;4992558;28;20580;-69
2021/04/28 09:25:55;;;;;;;;;;;;;;;14.02;31.14;100194.88;4975146;28;20187;-71
2021/04/28 09:28:23;;;;;;;21.25;11.48;;;;;;;14.25;30.98;100182.41;5006747;28;20020;-71
2021/04/28 09:30:51;;;;;;;24.67;11.05;;;;;;;14.56;30.55;100185.25;5014603;28;20508;-70
2021/04/28 09:33:21;;;;;;;21.65;11.02;;;;;;;14.49;30.82;100176.94;4996467;28;20105;-71
2021/04/28 09:36:00;;;;;;;25.92;13.07;;;;;;;14.47;31.55;100170.91;4993002;28;20096;-71
2021/04/28 09:38:27;;;;;;;22.98;11.30;;;;;;;14.85;30.93;100180.16;4999649;28;20056;-70
2021/04/28 09:40:59;;;;;;;28.55;12.40;;;;;;;14.67;31.08;100174.56;5007516;28;20099;-71
2021/04/28 09:43:37;;;;;;;18.98;10.25;;;;;;;14.75;30.24;100177.44;5002818;28;20090;-71
2021/04/28 09:46:04;;;;;;;20.10;11.25;;;;;;;14.77;30.62;100174.66;4988836;28;20077;-71
2021/04/28 09:48:31;;;;;;;22.85;11.23;;;;;;;14.58;31.33;100170.88;5015476;23;20482;-69
2021/04/28 09:51:09;;;;;;;22.95;11.10;;;;;;;14.51;31.26;100164.44;5064339;28;20140;-70
2021/04/28 09:53:36;;;;;;;24.83;11.75;;;;;;;14.91;31.28;100167.25;5052311;28;20064;-70
2021/04/28 09:56:03;;;;;;;18.48;10.93;;;;;;;14.98;30.19;100166.72;5049105;28;20080;-69
2021/04/28 09:58:49;;;;;;;19.77;10.43;;;;;;;15.32;29.54;100159.38;5032753;28;20183;-70
2021/04/28 10:01:17;;;;;;;18.67;11.65;;;;;;;15.35;29.43;100161.75;5040155;28;20094;-70
2021/04/28 10:03:45;;;;;;;19.00;10.75;;;;;;;15.33;29.18;100147.81;5031379;28;20494;-70
2021/04/28 10:06:12;;;;;;;30.75;19.40;;;;;;;15.68;28.94;100150.06;5023384;28;20131;-71
2021/04/28 10:08:39;;;;;;;28.02;17.15;;;;;;;15.76;28.59;100146.72;5051750;28;20069;-71
2021/04/28 10:11:06;;;;;;;19.55;11.48;;;;;;;15.22;29.25;100134.59;5058378;28;20044;-72
2021/04/28 10:13:32;;;;;;;22.23;11.68;;;;;;;15.37;29.63;100141.25;5050509;28;20080;-71
2021/04/28 10:16:15;;;;;;;23.60;12.20;;;;;;;15.48;29.04;100141.16;5056448;28;20044;-71
2021/04/28 10:18:41;;;;;;;29.88;11.68;;;;;;;15.30;29.59;100142.75;5064695;28;20080;-72
2021/04/28 10:21:09;;;;;;;20.75;10.68;;;;;;;15.71;28.71;100141.81;5058865;28;20067;-69
2021/04/28 10:23:36;;;;;;;21.90;11.50;;;;;;;15.77;28.83;100145.78;5019995;28;20156;-70
2021/04/28 10:26:02;;;;;;;19.02;10.93;;;;;;;15.74;28.16;100138.91;5059448;28;20052;-70
2021/04/28 10:28:29;;;;;;;20.90;10.80;;;;;;;16.10;27.28;100132.13;5037235;28;20048;-71
2021/04/28 10:30:57;;;;;;;19.40;11.43;;;;;;;16.23;27.07;100141.66;5024551;28;20071;-70
2021/04/28 10:33:26;;;;;;;20.60;10.95;;;;;;;16.09;27.52;100121.66;5035060;28;20129;-72
2021/04/28 10:35:53;;;;;;;17.98;10.05;;;;;;;16.29;27.11;100122.50;5024733;28;20052;-70
2021/04/28 10:38:29;;;;;;;23.75;12.05;;;;;;;16.28;27.58;100124.31;5039402;28;20123;-71
2021/04/28 10:40:56;;;;;;;18.58;11.35;;;;;;;16.37;27.77;100126.16;5026593;28;20903;-71
2021/04/28 10:43:33;;;;;;;24.27;11.05;;;;;;;15.99;27.57;100120.81;5040995;28;20068;-69
2021/04/28 10:46:20;;;;;;;21.38;11.20;;;;;;;15.71;27.92;100128.56;5060827;28;20072;-71
2021/04/28 10:49:17;;;;;;;20.80;10.87;;;;;;;15.60;28.40;100110.06;5049015;28;20057;-70
2021/04/28 10:51:47;;;;;;;16.83;10.55;;;;;;;15.64;28.86;100107.03;5057438;28;20402;-70
2021/04/28 10:54:28;;;;;;;20.40;10.88;;;;;;;15.95;28.95;100109.63;5023036;28;20127;-72
2021/04/28 10:57:02;;;;;;;18.40;10.40;;;;;;;16.09;28.05;100100.41;5047811;28;20044;-71
2021/04/28 10:59:37;;;;;;;21.67;12.60;;;;;;;15.93;28.28;100104.44;5042262;28;20128;-70
2021/04/28 11:02:09;;;;;;;17.13;10.40;;;;;;;16.02;28.15;100100.13;5036122;28;20044;-71
2021/04/28 11:04:36;;;;;;;19.98;10.38;;;;;;;15.97;27.85;100106.81;5039690;28;20584;-70
2021/04/28 11:07:04;;;;;;;18.48;10.60;;;;;;;16.26;27.61;100096.25;5065998;28;20224;-70
2021/04/28 11:09:31;;;;;;;20.02;10.65;;;;;;;16.39;27.49;100094.97;5021908;28;20094;-71
2021/04/28 11:11:59;;;;;;;20.17;10.40;;;;;;;16.67;27.22;100095.91;5055367;28;20041;-70
2021/04/28 11:14:29;;;;;;;18.40;11.07;;;;;;;16.53;27.09;100088.41;5043282;28;20420;-70
2021/04/28 11:17:13;;;;;;;19.90;11.00;;;;;;;16.53;27.66;100085.75;5037940;28;20040;-70
2021/04/28 11:19:42;;;;;;;17.27;10.75;;;;;;;16.86;26.99;100092.41;5039821;28;20560;-71
2021/04/28 11:22:15;;;;;;;21.00;10.18;;;;;;;17.03;26.61;100082.03;5026200;28;20120;-70
2021/04/28 11:25:01;;;;;;;16.27;9.85;;;;;;;16.72;26.55;100090.22;5040489;28;20097;-69